sensor_id;sensor_type;location;lat;lon;timestamp;pressure;altitude;pressure_sealevel;temperature;humidity
73171;BME280;61381;50.118;19.962;2024-01-15T00:01:19;96686.91;;;3.14;84.30
73171;BME280;61381;50.118;19.962;2024-01-15T00:06:32;96681.03;;;2.93;84.98
73171;BME280;61381;50.118;19.962;2024-01-15T00:11:34;96673.09;;;2.93;85.08
73171;BME280;61381;50.118;19.962;2024-01-15T00:16:35;96656.47;;;2.93;85.22
73171;BME280;61381;50.118;19.962;2024-01-15T00:21:36;96651.00;;;3.08;84.52
73171;BME280;61381;50.118;19.962;2024-01-15T00:26:39;96648.06;;;2.85;85.04
73171;BME280;61381;50.118;19.962;2024-01-15T00:31:39;96652.47;;;2.66;84.99
73171;BME280;61381;50.118;19.962;2024-01-15T00:36:40;96646.16;;;2.62;85.14
73171;BME280;61381;50.118;19.962;2024-01-15T00:41:43;96636.31;;;2.67;85.88
73171;BME280;61381;50.118;19.962;2024-01-15T00:46:44;96617.72;;;2.78;85.29
73171;BME280;61381;50.118;19.962;2024-01-15T00:51:44;96622.09;;;2.93;83.99
73171;BME280;61381;50.118;19.962;2024-01-15T00:56:47;96623.16;;;3.16;83.56
73171;BME280;61381;50.118;19.962;2024-01-15T01:01:48;96616.63;;;3.08;82.75
73171;BME280;61381;50.118;19.962;2024-01-15T01:06:49;96615.81;;;3.08;83.86
73171;BME280;61381;50.118;19.962;2024-01-15T01:11:51;96610.41;;;3.18;83.10
73171;BME280;61381;50.118;19.962;2024-01-15T01:16:52;96608.78;;;2.98;83.38
73171;BME280;61381;50.118;19.962;2024-01-15T01:21:52;96607.41;;;3.25;82.79
73171;BME280;61381;50.118;19.962;2024-01-15T01:26:55;96593.03;;;3.12;83.40
73171;BME280;61381;50.118;19.962;2024-01-15T01:31:56;96583.47;;;2.92;83.43
73171;BME280;61381;50.118;19.962;2024-01-15T01:36:56;96574.09;;;2.80;83.28
73171;BME280;61381;50.118;19.962;2024-01-15T01:41:59;96574.69;;;2.96;83.00
73171;BME280;61381;50.118;19.962;2024-01-15T01:47:00;96562.03;;;3.36;81.43
73171;BME280;61381;50.118;19.962;2024-01-15T01:52:01;96556.06;;;3.26;81.22
73171;BME280;61381;50.118;19.962;2024-01-15T01:57:05;96547.66;;;3.24;81.45
73171;BME280;61381;50.118;19.962;2024-01-15T02:02:06;96527.53;;;3.03;81.82
73171;BME280;61381;50.118;19.962;2024-01-15T02:07:07;96533.47;;;3.14;80.41
73171;BME280;61381;50.118;19.962;2024-01-15T02:12:09;96528.84;;;3.44;78.68
73171;BME280;61381;50.118;19.962;2024-01-15T02:17:10;96516.34;;;3.31;79.99
73171;BME280;61381;50.118;19.962;2024-01-15T02:22:11;96507.03;;;3.33;79.40
73171;BME280;61381;50.118;19.962;2024-01-15T02:27:13;96503.44;;;3.05;79.77
73171;BME280;61381;50.118;19.962;2024-01-15T02:32:14;96505.19;;;3.34;79.38
73171;BME280;61381;50.118;19.962;2024-01-15T02:37:15;96495.94;;;3.12;79.55
73171;BME280;61381;50.118;19.962;2024-01-15T02:42:17;96484.06;;;3.29;79.51
73171;BME280;61381;50.118;19.962;2024-01-15T02:47:18;96467.91;;;3.30;78.96
73171;BME280;61381;50.118;19.962;2024-01-15T02:52:19;96468.91;;;3.34;79.22
73171;BME280;61381;50.118;19.962;2024-01-15T02:57:21;96462.91;;;3.29;80.74
73171;BME280;61381;50.118;19.962;2024-01-15T03:02:22;96462.03;;;3.33;79.94
73171;BME280;61381;50.118;19.962;2024-01-15T03:07:23;96455.81;;;3.24;78.77
73171;BME280;61381;50.118;19.962;2024-01-15T03:12:25;96454.53;;;3.41;78.76
73171;BME280;61381;50.118;19.962;2024-01-15T03:17:26;96443.97;;;3.02;80.30
73171;BME280;61381;50.118;19.962;2024-01-15T03:22:27;96436.19;;;3.11;79.50
73171;BME280;61381;50.118;19.962;2024-01-15T03:27:29;96429.31;;;3.10;79.02
73171;BME280;61381;50.118;19.962;2024-01-15T03:32:30;96428.28;;;3.06;81.83
73171;BME280;61381;50.118;19.962;2024-01-15T03:37:31;96422.25;;;2.87;78.40
73171;BME280;61381;50.118;19.962;2024-01-15T03:42:33;96424.44;;;2.98;78.44
73171;BME280;61381;50.118;19.962;2024-01-15T03:47:34;96405.22;;;2.55;77.94
73171;BME280;61381;50.118;19.962;2024-01-15T03:52:35;96390.78;;;2.66;78.21
73171;BME280;61381;50.118;19.962;2024-01-15T03:57:37;96390.13;;;2.55;76.79
73171;BME280;61381;50.118;19.962;2024-01-15T04:02:38;96389.72;;;2.67;76.95
73171;BME280;61381;50.118;19.962;2024-01-15T04:07:39;96377.69;;;2.94;75.60
73171;BME280;61381;50.118;19.962;2024-01-15T04:12:41;96370.28;;;2.96;75.84
73171;BME280;61381;50.118;19.962;2024-01-15T04:17:42;96369.63;;;3.04;76.02
73171;BME280;61381;50.118;19.962;2024-01-15T04:22:43;96367.88;;;3.13;75.82
73171;BME280;61381;50.118;19.962;2024-01-15T04:27:45;96355.03;;;3.07;74.27
73171;BME280;61381;50.118;19.962;2024-01-15T04:32:46;96347.69;;;3.03;74.25
73171;BME280;61381;50.118;19.962;2024-01-15T04:37:47;96350.97;;;2.95;74.66
73171;BME280;61381;50.118;19.962;2024-01-15T04:42:49;96356.94;;;3.20;74.24
73171;BME280;61381;50.118;19.962;2024-01-15T04:47:50;96352.28;;;3.31;73.41
73171;BME280;61381;50.118;19.962;2024-01-15T04:52:51;96356.78;;;3.30;74.63
73171;BME280;61381;50.118;19.962;2024-01-15T04:57:53;96358.47;;;3.40;74.13
73171;BME280;61381;50.118;19.962;2024-01-15T05:02:54;96357.03;;;3.15;75.42
73171;BME280;61381;50.118;19.962;2024-01-15T05:07:55;96363.94;;;3.11;75.66
73171;BME280;61381;50.118;19.962;2024-01-15T05:12:57;96367.78;;;3.37;75.17
73171;BME280;61381;50.118;19.962;2024-01-15T05:17:58;96363.84;;;3.35;74.77
73171;BME280;61381;50.118;19.962;2024-01-15T05:22:59;96360.28;;;3.26;76.33
73171;BME280;61381;50.118;19.962;2024-01-15T05:28:01;96356.00;;;3.30;77.53
73171;BME280;61381;50.118;19.962;2024-01-15T05:33:03;96361.72;;;3.18;75.98
73171;BME280;61381;50.118;19.962;2024-01-15T05:38:04;96336.72;;;3.10;75.99
73171;BME280;61381;50.118;19.962;2024-01-15T05:43:06;96347.47;;;3.33;76.16
73171;BME280;61381;50.118;19.962;2024-01-15T05:48:07;96347.16;;;3.20;75.77
73171;BME280;61381;50.118;19.962;2024-01-15T05:53:07;96342.53;;;2.93;76.66
73171;BME280;61381;50.118;19.962;2024-01-15T05:58:10;96346.78;;;2.94;77.52
73171;BME280;61381;50.118;19.962;2024-01-15T06:03:10;96338.59;;;2.91;78.54
73171;BME280;61381;50.118;19.962;2024-01-15T06:08:11;96335.91;;;2.96;78.38
73171;BME280;61381;50.118;19.962;2024-01-15T06:13:14;96335.84;;;2.82;77.89
73171;BME280;61381;50.118;19.962;2024-01-15T06:18:14;96330.03;;;2.99;77.97
73171;BME280;61381;50.118;19.962;2024-01-15T06:23:15;96323.91;;;2.65;78.85
73171;BME280;61381;50.118;19.962;2024-01-15T06:28:17;96329.56;;;2.78;78.96
73171;BME280;61381;50.118;19.962;2024-01-15T06:33:18;96326.59;;;2.98;78.40
73171;BME280;61381;50.118;19.962;2024-01-15T06:38:19;96338.78;;;2.80;78.86
73171;BME280;61381;50.118;19.962;2024-01-15T06:43:21;96337.47;;;2.97;79.35
73171;BME280;61381;50.118;19.962;2024-01-15T06:48:22;96345.03;;;3.36;77.58
73171;BME280;61381;50.118;19.962;2024-01-15T06:53:23;96343.00;;;3.14;79.06
73171;BME280;61381;50.118;19.962;2024-01-15T06:58:25;96343.56;;;3.44;78.30
73171;BME280;61381;50.118;19.962;2024-01-15T07:03:26;96340.00;;;2.88;79.70
73171;BME280;61381;50.118;19.962;2024-01-15T07:08:27;96345.38;;;3.16;79.20
73171;BME280;61381;50.118;19.962;2024-01-15T07:13:29;96354.75;;;2.89;79.23
73171;BME280;61381;50.118;19.962;2024-01-15T07:18:30;96355.22;;;3.29;78.26
73171;BME280;61381;50.118;19.962;2024-01-15T07:23:31;96359.47;;;3.11;78.47
73171;BME280;61381;50.118;19.962;2024-01-15T07:28:33;96368.56;;;3.05;78.86
73171;BME280;61381;50.118;19.962;2024-01-15T07:33:34;96369.03;;;3.07;79.26
73171;BME280;61381;50.118;19.962;2024-01-15T07:38:35;96368.91;;;3.17;78.63
73171;BME280;61381;50.118;19.962;2024-01-15T07:43:38;96383.69;;;3.51;78.24
73171;BME280;61381;50.118;19.962;2024-01-15T07:48:39;96386.31;;;3.18;78.47
73171;BME280;61381;50.118;19.962;2024-01-15T07:53:40;96383.81;;;3.27;78.19
73171;BME280;61381;50.118;19.962;2024-01-15T07:58:42;96384.03;;;3.31;76.99
73171;BME280;61381;50.118;19.962;2024-01-15T08:03:43;96391.50;;;3.75;75.33
73171;BME280;61381;50.118;19.962;2024-01-15T08:08:44;96388.78;;;3.48;77.00
73171;BME280;61381;50.118;19.962;2024-01-15T08:13:46;96397.69;;;4.26;75.81
73171;BME280;61381;50.118;19.962;2024-01-15T08:18:47;96404.75;;;4.31;74.89
73171;BME280;61381;50.118;19.962;2024-01-15T08:23:48;96403.41;;;4.20;75.11
73171;BME280;61381;50.118;19.962;2024-01-15T08:28:50;96392.09;;;4.14;74.89
73171;BME280;61381;50.118;19.962;2024-01-15T08:33:51;96393.75;;;3.96;75.03
73171;BME280;61381;50.118;19.962;2024-01-15T08:38:52;96392.38;;;4.40;74.56
73171;BME280;61381;50.118;19.962;2024-01-15T08:43:54;96404.56;;;4.41;74.55
73171;BME280;61381;50.118;19.962;2024-01-15T08:48:55;96429.25;;;4.78;73.50
73171;BME280;61381;50.118;19.962;2024-01-15T08:53:56;96412.75;;;3.84;74.13
73171;BME280;61381;50.118;19.962;2024-01-15T08:58:58;96423.13;;;3.67;75.96
73171;BME280;61381;50.118;19.962;2024-01-15T09:03:59;96423.50;;;3.27;76.55
73171;BME280;61381;50.118;19.962;2024-01-15T09:09:00;96419.44;;;2.97;77.49
73171;BME280;61381;50.118;19.962;2024-01-15T09:14:02;96425.94;;;3.56;75.28
73171;BME280;61381;50.118;19.962;2024-01-15T09:19:03;96438.78;;;3.30;76.15
73171;BME280;61381;50.118;19.962;2024-01-15T09:24:04;96438.63;;;3.73;75.82
73171;BME280;61381;50.118;19.962;2024-01-15T09:29:06;96428.03;;;3.73;75.17
73171;BME280;61381;50.118;19.962;2024-01-15T09:34:07;96429.03;;;3.78;75.31
73171;BME280;61381;50.118;19.962;2024-01-15T09:39:08;96428.34;;;3.20;76.97
73171;BME280;61381;50.118;19.962;2024-01-15T09:44:10;96428.97;;;3.50;78.99
73171;BME280;61381;50.118;19.962;2024-01-15T09:49:12;96432.00;;;3.24;82.46
73171;BME280;61381;50.118;19.962;2024-01-15T09:54:14;96425.28;;;3.32;80.84
73171;BME280;61381;50.118;19.962;2024-01-15T09:59:18;96407.19;;;3.20;79.87
73171;BME280;61381;50.118;19.962;2024-01-15T10:04:19;96417.22;;;3.56;78.34
73171;BME280;61381;50.118;19.962;2024-01-15T10:09:20;96411.75;;;3.33;78.07
73171;BME280;61381;50.118;19.962;2024-01-15T10:14:22;96422.53;;;2.85;84.37
73171;BME280;61381;50.118;19.962;2024-01-15T10:19:23;96432.09;;;4.82;76.63
73171;BME280;61381;50.118;19.962;2024-01-15T10:24:23;96446.22;;;4.91;75.23
73171;BME280;61381;50.118;19.962;2024-01-15T10:29:26;96437.91;;;4.56;77.41
73171;BME280;61381;50.118;19.962;2024-01-15T10:34:27;96425.78;;;4.27;76.20
73171;BME280;61381;50.118;19.962;2024-01-15T10:39:28;96422.81;;;4.01;74.66
73171;BME280;61381;50.118;19.962;2024-01-15T10:44:30;96422.91;;;4.10;73.29
73171;BME280;61381;50.118;19.962;2024-01-15T10:49:31;96416.22;;;4.54;70.83
73171;BME280;61381;50.118;19.962;2024-01-15T10:54:32;96421.94;;;4.34;70.42
73171;BME280;61381;50.118;19.962;2024-01-15T10:59:34;96412.41;;;4.33;69.41
73171;BME280;61381;50.118;19.962;2024-01-15T11:04:36;96414.28;;;4.96;66.54
73171;BME280;61381;50.118;19.962;2024-01-15T11:09:37;96410.94;;;4.54;67.79
73171;BME280;61381;50.118;19.962;2024-01-15T11:14:41;96407.50;;;4.54;66.90
73171;BME280;61381;50.118;19.962;2024-01-15T11:19:45;96414.16;;;4.51;66.87
73171;BME280;61381;50.118;19.962;2024-01-15T11:24:46;96415.06;;;4.97;65.57
73171;BME280;61381;50.118;19.962;2024-01-15T11:30:02;96410.84;;;4.96;66.00
73171;BME280;61381;50.118;19.962;2024-01-15T11:35:04;96415.47;;;5.27;64.15
73171;BME280;61381;50.118;19.962;2024-01-15T11:40:06;96402.25;;;4.76;66.05
73171;BME280;61381;50.118;19.962;2024-01-15T11:45:08;96397.47;;;4.64;64.71
73171;BME280;61381;50.118;19.962;2024-01-15T11:50:09;96392.28;;;4.45;65.87
73171;BME280;61381;50.118;19.962;2024-01-15T11:55:12;96390.00;;;4.53;66.12
73171;BME280;61381;50.118;19.962;2024-01-15T12:00:17;96397.41;;;4.28;66.30
73171;BME280;61381;50.118;19.962;2024-01-15T12:05:19;96416.25;;;4.13;67.00
73171;BME280;61381;50.118;19.962;2024-01-15T12:10:21;96402.31;;;4.21;67.51
73171;BME280;61381;50.118;19.962;2024-01-15T12:15:23;96392.41;;;3.99;67.76
73171;BME280;61381;50.118;19.962;2024-01-15T12:20:25;96404.94;;;3.93;67.26
73171;BME280;61381;50.118;19.962;2024-01-15T12:25:26;96395.59;;;3.68;68.00
73171;BME280;61381;50.118;19.962;2024-01-15T12:30:28;96387.97;;;4.08;66.63
73171;BME280;61381;50.118;19.962;2024-01-15T12:35:30;96398.06;;;3.92;66.85
73171;BME280;61381;50.118;19.962;2024-01-15T12:40:31;96390.41;;;3.90;67.95
73171;BME280;61381;50.118;19.962;2024-01-15T12:45:34;96377.09;;;3.96;66.79
73171;BME280;61381;50.118;19.962;2024-01-15T12:50:36;96399.28;;;4.00;65.90
73171;BME280;61381;50.118;19.962;2024-01-15T12:55:36;96410.31;;;3.74;67.20
73171;BME280;61381;50.118;19.962;2024-01-15T13:00:39;96399.13;;;3.63;67.68
73171;BME280;61381;50.118;19.962;2024-01-15T13:05:40;96400.31;;;3.85;68.52
73171;BME280;61381;50.118;19.962;2024-01-15T13:10:41;96387.97;;;3.47;68.69
73171;BME280;61381;50.118;19.962;2024-01-15T13:15:43;96393.31;;;3.61;69.38
73171;BME280;61381;50.118;19.962;2024-01-15T13:20:44;96386.50;;;3.41;69.12
73171;BME280;61381;50.118;19.962;2024-01-15T13:25:45;96386.44;;;3.27;69.13
73171;BME280;61381;50.118;19.962;2024-01-15T13:30:47;96395.44;;;4.06;68.57
73171;BME280;61381;50.118;19.962;2024-01-15T13:35:48;96384.66;;;3.42;68.75
73171;BME280;61381;50.118;19.962;2024-01-15T13:40:49;96363.91;;;3.16;71.75
73171;BME280;61381;50.118;19.962;2024-01-15T13:45:51;96380.97;;;3.24;71.09
73171;BME280;61381;50.118;19.962;2024-01-15T13:50:53;96387.84;;;3.06;70.77
73171;BME280;61381;50.118;19.962;2024-01-15T13:55:53;96374.34;;;3.07;71.39
73171;BME280;61381;50.118;19.962;2024-01-15T14:00:56;96373.94;;;2.81;72.18
73171;BME280;61381;50.118;19.962;2024-01-15T14:05:57;96367.88;;;2.80;72.61
73171;BME280;61381;50.118;19.962;2024-01-15T14:10:58;96375.44;;;2.87;71.15
73171;BME280;61381;50.118;19.962;2024-01-15T14:16:00;96383.41;;;2.44;73.38
73171;BME280;61381;50.118;19.962;2024-01-15T14:21:01;96382.59;;;2.43;72.85
73171;BME280;61381;50.118;19.962;2024-01-15T14:26:02;96377.59;;;2.85;71.36
73171;BME280;61381;50.118;19.962;2024-01-15T14:31:04;96369.19;;;2.59;71.95
73171;BME280;61381;50.118;19.962;2024-01-15T14:36:06;96368.34;;;2.44;72.00
73171;BME280;61381;50.118;19.962;2024-01-15T14:41:07;96372.34;;;2.61;71.14
73171;BME280;61381;50.118;19.962;2024-01-15T14:46:09;96373.06;;;2.47;70.48
73171;BME280;61381;50.118;19.962;2024-01-15T14:51:11;96382.41;;;2.40;71.03
73171;BME280;61381;50.118;19.962;2024-01-15T14:56:11;96380.03;;;2.38;71.88
73171;BME280;61381;50.118;19.962;2024-01-15T15:01:14;96379.06;;;2.10;72.72
73171;BME280;61381;50.118;19.962;2024-01-15T15:06:15;96376.09;;;2.36;72.44
73171;BME280;61381;50.118;19.962;2024-01-15T15:11:15;96386.53;;;2.27;72.15
73171;BME280;61381;50.118;19.962;2024-01-15T15:16:18;96384.94;;;2.26;72.75
73171;BME280;61381;50.118;19.962;2024-01-15T15:21:18;96378.44;;;2.18;73.59
73171;BME280;61381;50.118;19.962;2024-01-15T15:26:19;96365.50;;;2.17;74.55
73171;BME280;61381;50.118;19.962;2024-01-15T15:31:22;96369.34;;;2.05;74.38
73171;BME280;61381;50.118;19.962;2024-01-15T15:36:22;96383.44;;;1.95;75.30
73171;BME280;61381;50.118;19.962;2024-01-15T15:41:23;96383.03;;;2.07;74.63
73171;BME280;61381;50.118;19.962;2024-01-15T15:46:26;96387.66;;;2.21;74.99
73171;BME280;61381;50.118;19.962;2024-01-15T15:51:27;96378.88;;;2.25;73.78
73171;BME280;61381;50.118;19.962;2024-01-15T15:56:27;96370.59;;;2.32;74.73
73171;BME280;61381;50.118;19.962;2024-01-15T16:01:30;96378.53;;;2.08;75.02
73171;BME280;61381;50.118;19.962;2024-01-15T16:06:31;96393.25;;;2.14;75.29
73171;BME280;61381;50.118;19.962;2024-01-15T16:11:32;96387.41;;;2.17;74.75
73171;BME280;61381;50.118;19.962;2024-01-15T16:16:35;96359.59;;;2.25;74.64
73171;BME280;61381;50.118;19.962;2024-01-15T16:21:35;96385.69;;;2.50;75.11
73171;BME280;61381;50.118;19.962;2024-01-15T16:26:36;96380.72;;;2.25;74.85
73171;BME280;61381;50.118;19.962;2024-01-15T16:31:39;96400.13;;;2.58;74.64
73171;BME280;61381;50.118;19.962;2024-01-15T16:36:40;96401.47;;;2.56;75.45
73171;BME280;61381;50.118;19.962;2024-01-15T16:41:40;96418.06;;;2.61;74.78
73171;BME280;61381;50.118;19.962;2024-01-15T16:46:43;96427.88;;;2.80;74.51
73171;BME280;61381;50.118;19.962;2024-01-15T16:51:44;96426.38;;;2.74;74.57
73171;BME280;61381;50.118;19.962;2024-01-15T16:56:49;96438.22;;;2.76;75.60
73171;BME280;61381;50.118;19.962;2024-01-15T17:02:09;96436.66;;;2.75;76.32
73171;BME280;61381;50.118;19.962;2024-01-15T17:07:13;96434.44;;;2.63;76.00
73171;BME280;61381;50.118;19.962;2024-01-15T17:12:14;96430.50;;;2.61;75.87
73171;BME280;61381;50.118;19.962;2024-01-15T17:17:16;96435.66;;;2.71;75.66
73171;BME280;61381;50.118;19.962;2024-01-15T17:22:17;96434.00;;;2.56;75.77
73171;BME280;61381;50.118;19.962;2024-01-15T17:27:18;96419.03;;;2.46;76.03
73171;BME280;61381;50.118;19.962;2024-01-15T17:32:21;96432.06;;;2.62;76.70
73171;BME280;61381;50.118;19.962;2024-01-15T17:37:21;96445.91;;;2.54;76.54
73171;BME280;61381;50.118;19.962;2024-01-15T17:42:22;96434.69;;;2.43;76.91
73171;BME280;61381;50.118;19.962;2024-01-15T17:47:25;96449.00;;;2.61;77.37
73171;BME280;61381;50.118;19.962;2024-01-15T17:52:25;96450.31;;;2.63;78.03
73171;BME280;61381;50.118;19.962;2024-01-15T17:57:26;96445.91;;;2.54;78.19
73171;BME280;61381;50.118;19.962;2024-01-15T18:02:29;96453.06;;;2.53;78.12
73171;BME280;61381;50.118;19.962;2024-01-15T18:07:30;96452.09;;;2.68;77.51
73171;BME280;61381;50.118;19.962;2024-01-15T18:12:31;96443.91;;;2.45;78.24
73171;BME280;61381;50.118;19.962;2024-01-15T18:17:35;96465.03;;;2.45;77.96
73171;BME280;61381;50.118;19.962;2024-01-15T18:22:44;96442.31;;;2.44;79.34
73171;BME280;61381;50.118;19.962;2024-01-15T18:27:46;96461.88;;;2.43;80.41
73171;BME280;61381;50.118;19.962;2024-01-15T18:32:48;96478.25;;;2.45;82.58
73171;BME280;61381;50.118;19.962;2024-01-15T18:37:49;96470.22;;;2.31;84.71
73171;BME280;61381;50.118;19.962;2024-01-15T18:42:49;96467.00;;;2.10;87.39
73171;BME280;61381;50.118;19.962;2024-01-15T18:47:52;96498.78;;;5.03;82.66
73171;BME280;61381;50.118;19.962;2024-01-15T18:52:52;96489.00;;;4.34;82.03
73171;BME280;61381;50.118;19.962;2024-01-15T18:57:56;96484.47;;;3.74;89.86
73171;BME280;61381;50.118;19.962;2024-01-15T19:02:59;96477.53;;;3.59;85.90
73171;BME280;61381;50.118;19.962;2024-01-15T19:08:01;96493.38;;;3.45;88.05
73171;BME280;61381;50.118;19.962;2024-01-15T19:13:02;96463.97;;;3.47;87.51
73171;BME280;61381;50.118;19.962;2024-01-15T19:18:04;96485.59;;;4.01;85.45
73171;BME280;61381;50.118;19.962;2024-01-15T19:23:08;96463.72;;;3.29;88.05
73171;BME280;61381;50.118;19.962;2024-01-15T19:28:10;96476.94;;;3.29;89.46
73171;BME280;61381;50.118;19.962;2024-01-15T19:33:12;96469.06;;;3.43;87.43
73171;BME280;61381;50.118;19.962;2024-01-15T19:38:13;96467.41;;;3.09;87.19
73171;BME280;61381;50.118;19.962;2024-01-15T19:43:14;96479.16;;;3.22;85.79
73171;BME280;61381;50.118;19.962;2024-01-15T19:48:16;96477.34;;;3.55;83.52
73171;BME280;61381;50.118;19.962;2024-01-15T19:53:17;96487.56;;;3.24;83.51
73171;BME280;61381;50.118;19.962;2024-01-15T19:58:18;96492.38;;;3.22;81.98
73171;BME280;61381;50.118;19.962;2024-01-15T20:03:20;96482.50;;;3.09;82.81
73171;BME280;61381;50.118;19.962;2024-01-15T20:08:22;96491.00;;;3.25;80.63
73171;BME280;61381;50.118;19.962;2024-01-15T20:13:23;96498.06;;;3.10;81.97
73171;BME280;61381;50.118;19.962;2024-01-15T20:18:25;96504.03;;;3.21;80.81
73171;BME280;61381;50.118;19.962;2024-01-15T20:23:26;96495.63;;;2.95;80.79
73171;BME280;61381;50.118;19.962;2024-01-15T20:28:27;96516.25;;;3.36;79.53
73171;BME280;61381;50.118;19.962;2024-01-15T20:33:30;96539.00;;;3.56;78.45
73171;BME280;61381;50.118;19.962;2024-01-15T20:38:30;96526.06;;;2.92;78.56
73171;BME280;61381;50.118;19.962;2024-01-15T20:43:31;96532.06;;;3.22;77.59
73171;BME280;61381;50.118;19.962;2024-01-15T20:48:34;96534.25;;;2.96;79.43
73171;BME280;61381;50.118;19.962;2024-01-15T20:53:34;96539.16;;;2.83;81.86
73171;BME280;61381;50.118;19.962;2024-01-15T20:59:03;96529.75;;;2.72;81.79
73171;BME280;61381;50.118;19.962;2024-01-15T21:04:06;96549.72;;;2.83;84.79
73171;BME280;61381;50.118;19.962;2024-01-15T21:09:07;96557.88;;;2.87;84.22
73171;BME280;61381;50.118;19.962;2024-01-15T21:14:08;96558.19;;;3.04;83.73
73171;BME280;61381;50.118;19.962;2024-01-15T21:19:10;96569.63;;;3.00;84.15
73171;BME280;61381;50.118;19.962;2024-01-15T21:24:11;96573.25;;;2.85;85.09
73171;BME280;61381;50.118;19.962;2024-01-15T21:29:12;96584.59;;;4.38;81.31
73171;BME280;61381;50.118;19.962;2024-01-15T21:34:14;96587.91;;;4.16;76.85
73171;BME280;61381;50.118;19.962;2024-01-15T21:39:15;96589.28;;;3.75;77.65
73171;BME280;61381;50.118;19.962;2024-01-15T21:44:16;96606.28;;;4.87;73.83
73171;BME280;61381;50.118;19.962;2024-01-15T21:49:18;96611.59;;;4.87;71.97
73171;BME280;61381;50.118;19.962;2024-01-15T21:54:19;96614.06;;;4.97;69.74
73171;BME280;61381;50.118;19.962;2024-01-15T21:59:20;96614.66;;;4.94;68.30
73171;BME280;61381;50.118;19.962;2024-01-15T22:04:22;96609.34;;;4.80;70.43
73171;BME280;61381;50.118;19.962;2024-01-15T22:09:25;96615.13;;;4.82;69.30
73171;BME280;61381;50.118;19.962;2024-01-15T22:14:26;96611.13;;;3.67;73.29
73171;BME280;61381;50.118;19.962;2024-01-15T22:19:28;96617.63;;;3.74;76.13
73171;BME280;61381;50.118;19.962;2024-01-15T22:24:29;96629.56;;;4.29;73.60
73171;BME280;61381;50.118;19.962;2024-01-15T22:29:30;96636.53;;;3.68;74.26
73171;BME280;61381;50.118;19.962;2024-01-15T22:34:32;96647.25;;;4.34;76.78
73171;BME280;61381;50.118;19.962;2024-01-15T22:39:33;96640.63;;;2.88;83.33
73171;BME280;61381;50.118;19.962;2024-01-15T22:44:34;96640.97;;;2.81;82.71
73171;BME280;61381;50.118;19.962;2024-01-15T22:49:36;96646.66;;;2.93;83.50
73171;BME280;61381;50.118;19.962;2024-01-15T22:54:37;96643.34;;;3.07;83.33
73171;BME280;61381;50.118;19.962;2024-01-15T22:59:38;96652.00;;;2.88;81.83
73171;BME280;61381;50.118;19.962;2024-01-15T23:04:40;96655.38;;;3.18;82.23
73171;BME280;61381;50.118;19.962;2024-01-15T23:09:41;96650.97;;;2.25;89.69
73171;BME280;61381;50.118;19.962;2024-01-15T23:14:42;96666.59;;;2.17;100.00
73171;BME280;61381;50.118;19.962;2024-01-15T23:19:44;96674.56;;;2.46;96.96
73171;BME280;61381;50.118;19.962;2024-01-15T23:24:45;96688.63;;;2.41;96.59
73171;BME280;61381;50.118;19.962;2024-01-15T23:29:46;96687.38;;;2.63;94.08
73171;BME280;61381;50.118;19.962;2024-01-15T23:34:48;96686.19;;;2.50;95.24
73171;BME280;61381;50.118;19.962;2024-01-15T23:39:50;96689.47;;;2.66;94.92
73171;BME280;61381;50.118;19.962;2024-01-15T23:44:51;96697.59;;;2.75;95.40
73171;BME280;61381;50.118;19.962;2024-01-15T23:49:53;96697.09;;;2.73;98.26
73171;BME280;61381;50.118;19.962;2024-01-15T23:54:54;96705.03;;;3.02;92.32
73171;BME280;61381;50.118;19.962;2024-01-15T23:59:55;96710.19;;;2.88;98.33
